createdAt,value
2019-02-10T00:01:01.533Z,94.43
2019-02-10T00:03:28.898Z,104.27
2019-02-10T00:05:56.341Z,102.53
2019-02-10T00:08:23.830Z,88.60
2019-02-10T00:10:51.183Z,171.70
2019-02-10T00:13:26.016Z,135.43
2019-02-10T00:15:53.478Z,134.90
2019-02-10T00:18:20.923Z,115.43
2019-02-10T00:20:48.429Z,133.57
2019-02-10T00:23:15.847Z,138.97
2019-02-10T00:25:43.272Z,125.27
2019-02-10T00:28:10.641Z,134.57
2019-02-10T00:30:38.171Z,115.97
2019-02-10T00:33:05.609Z,130.90
2019-02-10T00:35:33.023Z,127.00
2019-02-10T00:38:00.466Z,136.90
2019-02-10T00:40:27.939Z,145.83
2019-02-10T00:42:55.361Z,104.63
2019-02-10T00:45:22.803Z,131.80
2019-02-10T00:47:50.204Z,115.10
2019-02-10T00:50:17.654Z,110.93
2019-02-10T00:52:45.183Z,96.23
2019-02-10T00:55:12.590Z,98.87
2019-02-10T00:57:40.000Z,103.20
2019-02-10T01:00:07.993Z,99.03
2019-02-10T01:02:35.420Z,90.53
2019-02-10T01:05:02.838Z,86.90
2019-02-10T01:07:30.419Z,97.40
2019-02-10T01:09:57.781Z,97.80
2019-02-10T01:12:25.262Z,89.90
2019-02-10T01:14:52.684Z,89.63
2019-02-10T01:17:20.061Z,106.20
2019-02-10T01:19:47.468Z,97.23
2019-02-10T01:22:15.036Z,65.30
2019-02-10T01:24:42.495Z,73.47
2019-02-10T01:27:10.238Z,86.93
2019-02-10T01:29:37.784Z,45.77
2019-02-10T01:32:05.356Z,85.93
2019-02-10T01:34:32.750Z,78.43
2019-02-10T01:37:00.215Z,76.60
2019-02-10T01:39:27.852Z,73.80
2019-02-10T01:41:55.308Z,121.10
2019-02-10T01:44:22.720Z,74.77
2019-02-10T01:46:50.103Z,82.60
2019-02-10T01:49:17.499Z,97.13
2019-02-10T01:51:44.958Z,77.10
2019-02-10T01:54:12.517Z,72.10
2019-02-10T01:56:40.123Z,78.70
2019-02-10T01:59:07.544Z,85.50
2019-02-10T02:01:34.971Z,93.80
2019-02-10T02:04:02.391Z,95.70
2019-02-10T02:06:29.851Z,93.17
2019-02-10T02:08:57.303Z,94.87
2019-02-10T02:11:24.759Z,80.73
2019-02-10T02:13:52.250Z,80.87
2019-02-10T02:16:19.707Z,70.07
2019-02-10T02:18:47.157Z,72.27
2019-02-10T02:21:14.556Z,69.67
2019-02-10T02:23:41.995Z,51.97
2019-02-10T02:26:09.427Z,61.10
2019-02-10T02:28:36.865Z,63.20
2019-02-10T02:31:04.348Z,52.00
2019-02-10T02:33:31.806Z,72.50
2019-02-10T02:35:59.209Z,54.77
2019-02-10T02:38:26.641Z,76.20
2019-02-10T02:40:54.125Z,77.30
2019-02-10T02:43:21.546Z,73.97
2019-02-10T02:45:48.955Z,81.00
2019-02-10T02:48:16.424Z,83.03
2019-02-10T02:50:43.810Z,84.27
2019-02-10T02:53:11.281Z,85.40
2019-02-10T02:55:38.815Z,92.90
2019-02-10T02:58:06.199Z,75.57
2019-02-10T03:00:33.685Z,73.53
2019-02-10T03:03:01.171Z,65.83
2019-02-10T03:05:28.551Z,58.17
2019-02-10T03:07:56.005Z,71.47
2019-02-10T03:10:23.474Z,68.97
2019-02-10T03:12:50.843Z,62.57
2019-02-10T03:15:18.262Z,63.13
2019-02-10T03:17:45.685Z,64.93
2019-02-10T03:20:13.129Z,64.50
2019-02-10T03:22:40.510Z,58.93
2019-02-10T03:25:08.105Z,50.33
2019-02-10T03:27:35.545Z,55.53
2019-02-10T03:30:03.081Z,50.63
2019-02-10T03:32:30.539Z,51.70
2019-02-10T03:34:57.972Z,51.13
2019-02-10T03:37:27.193Z,49.93
2019-02-10T03:39:54.963Z,54.33
2019-02-10T03:42:22.821Z,52.50
2019-02-10T03:44:50.215Z,52.23
2019-02-10T03:47:17.652Z,52.53
2019-02-10T03:49:45.081Z,48.80
2019-02-10T03:52:12.546Z,54.57
2019-02-10T03:54:40.045Z,50.53
2019-02-10T03:57:07.606Z,43.90
2019-02-10T03:59:35.064Z,41.73
2019-02-10T04:02:02.456Z,49.33
2019-02-10T04:04:30.285Z,46.30
2019-02-10T04:06:57.750Z,49.43
2019-02-10T04:09:25.117Z,56.23
2019-02-10T04:11:52.573Z,51.23
2019-02-10T04:14:20.027Z,51.13
2019-02-10T04:16:47.406Z,46.13
2019-02-10T04:19:14.829Z,50.43
2019-02-10T04:21:42.249Z,48.10
2019-02-10T04:24:09.745Z,56.33
2019-02-10T04:26:37.188Z,49.00
2019-02-10T04:29:05.859Z,40.80
2019-02-10T04:31:33.317Z,51.77
2019-02-10T04:34:00.798Z,53.67
2019-02-10T04:36:28.222Z,57.83
2019-02-10T04:38:55.808Z,53.97
2019-02-10T04:41:23.374Z,49.57
2019-02-10T04:43:50.840Z,56.33
2019-02-10T04:46:18.452Z,49.23
2019-02-10T04:48:45.863Z,48.80
2019-02-10T04:51:13.301Z,49.70
2019-02-10T04:53:40.750Z,52.23
2019-02-10T04:56:15.618Z,52.70
2019-02-10T04:58:43.174Z,50.40
2019-02-10T05:01:10.627Z,44.80
2019-02-10T05:03:38.203Z,53.20
2019-02-10T05:06:05.564Z,42.67
2019-02-10T05:08:33.004Z,51.80
2019-02-10T05:11:00.465Z,49.23
2019-02-10T05:13:27.832Z,48.87
2019-02-10T05:15:55.269Z,54.73
2019-02-10T05:18:23.249Z,55.57
2019-02-10T05:20:50.670Z,51.50
2019-02-10T05:23:18.202Z,50.30
2019-02-10T05:25:45.667Z,55.90
2019-02-10T05:28:13.091Z,57.77
2019-02-10T05:30:40.510Z,55.93
2019-02-10T05:33:07.964Z,57.17
2019-02-10T05:35:35.412Z,63.80
2019-02-10T05:38:04.481Z,64.90
2019-02-10T05:40:32.312Z,58.97
2019-02-10T05:42:59.791Z,61.47
2019-02-10T05:45:27.230Z,44.27
2019-02-10T05:47:54.676Z,68.37
2019-02-10T05:50:22.152Z,76.27
2019-02-10T05:52:49.523Z,74.53
2019-02-10T05:55:17.059Z,72.10
2019-02-10T05:57:44.535Z,59.93
2019-02-10T06:00:12.173Z,77.77
2019-02-10T06:02:39.597Z,56.80
2019-02-10T06:05:19.273Z,80.83
2019-02-10T06:07:46.766Z,86.80
2019-02-10T06:10:14.243Z,77.73
2019-02-10T06:12:41.832Z,72.97
2019-02-10T06:15:09.692Z,73.30
2019-02-10T06:17:37.270Z,66.33
2019-02-10T06:20:05.306Z,78.07
2019-02-10T06:22:32.735Z,67.63
2019-02-10T06:25:00.256Z,65.70
2019-02-10T06:27:27.749Z,67.20
2019-02-10T06:29:55.287Z,59.33
2019-02-10T06:32:22.765Z,77.57
2019-02-10T06:34:50.158Z,69.90
2019-02-10T06:37:17.609Z,67.93
2019-02-10T06:39:45.314Z,66.00
2019-02-10T06:42:13.016Z,67.57
2019-02-10T06:44:40.503Z,69.97
2019-02-10T06:47:07.857Z,52.77
2019-02-10T06:49:35.306Z,59.33
2019-02-10T06:52:02.769Z,59.50
2019-02-10T06:54:30.149Z,92.50
2019-02-10T06:56:57.607Z,126.63
2019-02-10T06:59:53.211Z,83.93
2019-02-10T07:02:39.857Z,80.73
2019-02-10T07:05:08.956Z,67.97
2019-02-10T07:07:36.423Z,57.47
2019-02-10T07:10:04.878Z,51.40
2019-02-10T07:12:48.930Z,53.53
2019-02-10T07:15:52.936Z,56.83
2019-02-10T07:18:57.142Z,54.80
2019-02-10T07:21:28.766Z,62.30
2019-02-10T07:23:58.913Z,57.97
2019-02-10T07:27:09.797Z,58.00
2019-02-10T07:30:33.554Z,55.57
2019-02-10T07:33:03.978Z,66.77
2019-02-10T07:36:20.787Z,66.73
2019-02-10T07:39:32.119Z,53.70
2019-02-10T07:42:25.687Z,59.97
2019-02-10T07:45:25.549Z,50.60
2019-02-10T07:48:10.059Z,51.07
2019-02-10T07:51:10.594Z,53.73
2019-02-10T07:54:10.328Z,55.90
2019-02-10T07:57:05.614Z,52.57
2019-02-10T08:00:00.740Z,51.00
2019-02-10T08:03:09.532Z,47.40
2019-02-10T08:06:02.068Z,43.23
2019-02-10T08:09:01.429Z,41.93
2019-02-10T08:11:48.041Z,45.57
2019-02-10T08:14:53.408Z,38.93
2019-02-10T08:17:53.625Z,39.30
2019-02-10T08:20:56.260Z,40.27
2019-02-10T08:24:00.692Z,43.10
2019-02-10T08:27:27.921Z,40.73
2019-02-10T08:30:38.767Z,45.67
2019-02-10T08:33:43.079Z,48.23
2019-02-10T08:36:55.445Z,47.57
2019-02-10T08:39:46.190Z,45.57
2019-02-10T08:42:40.769Z,45.50
2019-02-10T08:45:24.591Z,49.53
2019-02-10T08:48:26.683Z,43.87
2019-02-10T08:51:43.656Z,47.57
2019-02-10T08:54:11.634Z,58.17
2019-02-10T08:56:39.111Z,64.03
2019-02-10T08:59:06.554Z,56.73
2019-02-10T09:01:34.019Z,48.90
2019-02-10T09:04:01.591Z,56.40
2019-02-10T09:06:29.568Z,54.80
2019-02-10T09:09:02.412Z,60.33
2019-02-10T09:11:26.439Z,54.50
2019-02-10T09:13:53.878Z,58.97
2019-02-10T09:16:21.320Z,56.60
2019-02-10T09:18:48.673Z,63.30
2019-02-10T09:21:16.129Z,59.77
2019-02-10T09:23:43.602Z,64.97
2019-02-10T09:26:11.087Z,67.23
2019-02-10T09:28:38.566Z,55.93
2019-02-10T09:31:05.949Z,62.70
2019-02-10T09:33:33.416Z,63.47
2019-02-10T09:36:00.900Z,62.00
2019-02-10T09:38:28.329Z,53.70
2019-02-10T09:40:55.772Z,62.17
2019-02-10T09:43:23.205Z,58.27
2019-02-10T09:45:50.737Z,56.40
2019-02-10T09:48:18.165Z,56.70
2019-02-10T09:50:45.634Z,49.80
2019-02-10T09:53:13.077Z,54.63
2019-02-10T09:55:40.540Z,57.47
2019-02-10T09:58:07.971Z,53.47
2019-02-10T10:00:35.460Z,57.37
2019-02-10T10:03:02.871Z,48.70
2019-02-10T10:05:30.343Z,51.13
2019-02-10T10:07:57.888Z,49.37
2019-02-10T10:10:25.344Z,49.83
2019-02-10T10:12:52.896Z,48.17
2019-02-10T10:15:20.340Z,51.33
2019-02-10T10:17:47.869Z,55.63
2019-02-10T10:20:15.656Z,51.60
2019-02-10T10:22:43.086Z,49.53
2019-02-10T10:25:10.651Z,50.13
2019-02-10T10:27:38.097Z,48.90
2019-02-10T10:30:07.745Z,51.73
2019-02-10T10:32:35.236Z,45.03
2019-02-10T10:35:02.816Z,53.87
2019-02-10T10:37:30.396Z,45.77
2019-02-10T10:39:57.845Z,50.83
2019-02-10T10:42:25.428Z,50.03
2019-02-10T10:44:52.929Z,47.03
2019-02-10T10:47:20.377Z,51.87
2019-02-10T10:49:47.883Z,56.00
2019-02-10T10:52:15.281Z,44.73
2019-02-10T10:54:43.116Z,47.53
2019-02-10T10:57:10.693Z,41.83
2019-02-10T10:59:38.229Z,34.83
2019-02-10T11:02:05.693Z,43.00
2019-02-10T11:04:33.165Z,41.67
2019-02-10T11:07:00.610Z,46.57
2019-02-10T11:09:35.463Z,22.87
2019-02-10T11:11:57.490Z,24.97
2019-02-10T11:14:25.062Z,24.97
2019-02-10T11:16:52.475Z,20.97
2019-02-10T11:19:19.966Z,20.67
2019-02-10T11:21:47.424Z,21.37
2019-02-10T11:24:14.875Z,22.50
2019-02-10T11:26:42.307Z,21.40
2019-02-10T11:29:09.811Z,21.37
2019-02-10T11:31:37.264Z,24.07
2019-02-10T11:34:04.687Z,9.17
2019-02-10T11:36:32.131Z,8.67
2019-02-10T11:38:59.610Z,4.83
2019-02-10T11:41:27.163Z,6.83
2019-02-10T11:43:54.742Z,5.07
2019-02-10T11:46:22.268Z,6.13
2019-02-10T11:48:49.748Z,4.73
2019-02-10T11:51:17.242Z,6.07
2019-02-10T11:53:44.732Z,6.63
2019-02-10T11:56:12.221Z,8.83
2019-02-10T11:58:39.834Z,6.60
2019-02-10T12:01:07.298Z,8.37
2019-02-10T12:03:35.215Z,6.70
2019-02-10T12:06:02.683Z,6.80
2019-02-10T12:08:35.590Z,6.43
2019-02-10T12:10:59.846Z,5.17
2019-02-10T12:13:27.312Z,5.27
2019-02-10T12:15:54.817Z,5.87
2019-02-10T12:18:22.416Z,8.77
2019-02-10T12:20:52.320Z,6.30
2019-02-10T12:23:19.824Z,6.70
2019-02-10T12:25:47.323Z,5.47
2019-02-10T12:28:14.924Z,6.03
2019-02-10T12:30:42.455Z,6.67
2019-02-10T12:33:09.923Z,7.03
2019-02-10T12:35:38.735Z,8.00
2019-02-10T12:38:06.254Z,4.93
2019-02-10T12:40:33.738Z,4.53
2019-02-10T12:43:01.191Z,4.47
2019-02-10T12:45:30.029Z,4.43
2019-02-10T12:47:58.373Z,8.20
2019-02-10T12:50:27.037Z,6.97
2019-02-10T12:52:54.484Z,6.90
2019-02-10T12:55:22.881Z,6.30
2019-02-10T12:57:52.338Z,4.63
2019-02-10T13:00:19.934Z,9.40
2019-02-10T13:02:47.596Z,12.50
2019-02-10T13:05:15.237Z,6.80
2019-02-10T13:07:42.849Z,5.40
2019-02-10T13:10:11.849Z,8.00
2019-02-10T13:12:39.516Z,4.60
2019-02-10T13:15:08.248Z,5.70
2019-02-10T13:17:35.730Z,5.27
2019-02-10T13:20:04.011Z,5.53
2019-02-10T13:22:31.467Z,4.20
2019-02-10T13:24:58.953Z,4.80
2019-02-10T13:27:26.451Z,4.17
2019-02-10T13:29:54.032Z,5.23
2019-02-10T13:32:21.576Z,6.73
2019-02-10T13:34:49.040Z,8.90
2019-02-10T13:37:19.246Z,4.90
2019-02-10T13:39:47.013Z,4.67
2019-02-10T13:42:14.560Z,6.57
2019-02-10T13:44:42.379Z,7.30
2019-02-10T13:47:09.867Z,9.67
2019-02-10T13:49:37.447Z,8.63
2019-02-10T13:52:04.886Z,8.80
2019-02-10T13:54:32.421Z,5.87
2019-02-10T13:56:59.975Z,6.30
2019-02-10T13:59:27.561Z,5.10
2019-02-10T14:01:55.132Z,10.03
2019-02-10T14:04:22.779Z,6.37
2019-02-10T14:06:50.266Z,7.83
2019-02-10T14:09:17.870Z,8.33
2019-02-10T14:11:45.331Z,10.77
2019-02-10T14:14:12.939Z,8.67
2019-02-10T14:16:40.411Z,11.33
2019-02-10T14:19:08.050Z,11.33
2019-02-10T14:21:35.526Z,9.03
2019-02-10T14:24:02.981Z,5.70
2019-02-10T14:26:30.511Z,10.10
2019-02-10T14:28:57.958Z,7.87
2019-02-10T14:31:25.463Z,11.83
2019-02-10T14:33:52.951Z,9.93
2019-02-10T14:36:20.475Z,11.83
2019-02-10T14:38:47.906Z,10.13
2019-02-10T14:41:15.381Z,11.37
2019-02-10T14:43:42.934Z,10.83
2019-02-10T14:46:10.498Z,10.03
2019-02-10T14:48:37.904Z,6.93
2019-02-10T14:51:05.371Z,14.53
2019-02-10T14:53:32.871Z,10.07
2019-02-10T14:56:00.312Z,26.37
2019-02-10T14:58:27.815Z,16.43
2019-02-10T15:00:55.291Z,14.97
2019-02-10T15:03:22.815Z,10.40
2019-02-10T15:05:50.275Z,13.13
2019-02-10T15:08:17.716Z,8.37
2019-02-10T15:10:45.397Z,6.40
2019-02-10T15:13:13.151Z,6.47
2019-02-10T15:15:40.662Z,7.37
2019-02-10T15:18:08.146Z,9.10
2019-02-10T15:20:35.629Z,5.93
2019-02-10T15:23:03.131Z,12.27
2019-02-10T15:25:30.653Z,13.63
2019-02-10T15:27:58.030Z,13.40
2019-02-10T15:30:25.476Z,18.87
2019-02-10T15:32:52.934Z,19.60
2019-02-10T15:35:20.303Z,18.43
2019-02-10T15:37:47.999Z,18.80
2019-02-10T15:40:15.456Z,19.10
2019-02-10T15:42:43.473Z,18.03
2019-02-10T15:45:11.238Z,18.60
2019-02-10T15:47:38.879Z,16.53
2019-02-10T15:50:07.406Z,15.03
2019-02-10T15:52:34.928Z,19.30
2019-02-10T15:55:02.416Z,16.17
2019-02-10T15:57:29.866Z,19.93
2019-02-10T15:59:57.353Z,19.73
2019-02-10T16:02:24.941Z,19.87
2019-02-10T16:04:52.440Z,22.20
2019-02-10T16:07:19.911Z,30.23
2019-02-10T16:09:47.546Z,24.37
2019-02-10T16:12:15.116Z,24.27
2019-02-10T16:14:42.543Z,21.77
2019-02-10T16:17:09.994Z,18.13
2019-02-10T16:19:37.451Z,19.27
2019-02-10T16:22:05.150Z,20.90
2019-02-10T16:24:32.600Z,24.83
2019-02-10T16:27:00.390Z,24.53
2019-02-10T16:29:28.429Z,27.17
2019-02-10T16:31:55.993Z,26.77
2019-02-10T16:34:23.479Z,30.17
2019-02-10T16:36:51.058Z,37.00
2019-02-10T16:39:18.413Z,39.27
2019-02-10T16:41:45.891Z,30.77
2019-02-10T16:44:13.386Z,26.63
2019-02-10T16:46:40.843Z,31.83
2019-02-10T16:49:08.540Z,27.00
2019-02-10T16:51:36.106Z,28.87
2019-02-10T16:54:03.484Z,31.47
2019-02-10T16:56:30.974Z,26.67
2019-02-10T16:58:58.901Z,30.23
2019-02-10T17:01:26.382Z,28.50
2019-02-10T17:03:53.840Z,27.90
2019-02-10T17:06:21.288Z,26.13
2019-02-10T17:08:48.767Z,26.60
2019-02-10T17:11:16.276Z,28.77
2019-02-10T17:13:43.706Z,29.87
2019-02-10T17:16:11.203Z,27.80
2019-02-10T17:18:38.612Z,28.47
2019-02-10T17:21:06.083Z,30.47
2019-02-10T17:23:34.083Z,24.87
2019-02-10T17:26:01.724Z,22.63
2019-02-10T17:28:29.119Z,29.10
2019-02-10T17:30:56.548Z,34.80
2019-02-10T17:33:23.969Z,29.10
2019-02-10T17:35:51.461Z,42.07
2019-02-10T17:38:18.931Z,35.50
2019-02-10T17:40:52.884Z,36.87
2019-02-10T17:43:27.993Z,39.97
2019-02-10T17:45:50.088Z,36.20
2019-02-10T17:48:17.514Z,38.93
2019-02-10T17:50:45.086Z,31.87
2019-02-10T17:53:12.610Z,37.10
2019-02-10T17:55:40.074Z,35.10
2019-02-10T17:58:07.669Z,30.70
2019-02-10T18:00:39.422Z,26.97
2019-02-10T18:03:07.110Z,26.07
2019-02-10T18:05:35.390Z,29.97
2019-02-10T18:08:02.910Z,27.87
2019-02-10T18:10:30.856Z,23.90
2019-02-10T18:12:58.388Z,22.93
2019-02-10T18:15:54.501Z,28.23
2019-02-10T18:18:28.107Z,30.70
2019-02-10T18:21:08.369Z,31.00
2019-02-10T18:24:00.913Z,26.97
2019-02-10T18:26:47.979Z,32.63
2019-02-10T18:29:36.443Z,30.37
2019-02-10T18:32:19.956Z,30.47
2019-02-10T18:35:05.504Z,38.80
2019-02-10T18:38:07.942Z,37.97
2019-02-10T18:40:49.031Z,45.90
2019-02-10T18:43:39.093Z,40.07
2019-02-10T18:46:19.895Z,32.73
2019-02-10T18:49:07.211Z,28.67
2019-02-10T18:52:03.144Z,30.13
2019-02-10T18:54:50.161Z,25.07
2019-02-10T18:57:25.360Z,33.63
2019-02-10T19:00:24.445Z,32.33
2019-02-10T19:03:20.054Z,28.00
2019-02-10T19:06:19.144Z,35.60
2019-02-10T19:09:03.780Z,30.83
2019-02-10T19:11:36.024Z,25.13
2019-02-10T19:14:23.060Z,29.37
2019-02-10T19:17:10.038Z,28.23
2019-02-10T19:20:15.352Z,22.20
2019-02-10T19:23:00.772Z,20.80
2019-02-10T19:25:34.595Z,27.23
2019-02-10T19:28:20.405Z,25.07
2019-02-10T19:30:53.964Z,24.70
2019-02-10T19:33:46.966Z,29.47
2019-02-10T19:36:32.447Z,34.33
2019-02-10T19:39:21.486Z,35.37
2019-02-10T19:42:01.093Z,34.17
2019-02-10T19:44:49.044Z,35.83
2019-02-10T19:47:39.155Z,38.57
2019-02-10T19:50:29.323Z,35.90
2019-02-10T19:53:15.010Z,40.47
2019-02-10T19:55:51.003Z,35.97
2019-02-10T19:58:40.775Z,36.27
2019-02-10T20:01:28.151Z,42.00
2019-02-10T20:04:19.892Z,38.23
2019-02-10T20:07:06.958Z,44.70
2019-02-10T20:09:44.525Z,33.07
2019-02-10T20:12:43.854Z,42.30
2019-02-10T20:15:39.959Z,42.60
2019-02-10T20:18:29.941Z,42.33
2019-02-10T20:21:16.942Z,41.30
2019-02-10T20:23:51.266Z,34.50
2019-02-10T20:26:49.566Z,38.43
2019-02-10T20:29:22.731Z,39.10
2019-02-10T20:32:15.913Z,39.30
2019-02-10T20:35:09.050Z,38.73
2019-02-10T20:38:02.188Z,40.33
2019-02-10T20:40:49.165Z,41.47
2019-02-10T20:43:45.437Z,38.60
2019-02-10T20:46:21.632Z,31.07
2019-02-10T20:49:08.582Z,36.17
2019-02-10T20:51:44.577Z,34.80
2019-02-10T20:54:30.392Z,41.43
2019-02-10T20:57:16.048Z,39.70
2019-02-10T20:59:57.291Z,38.83
2019-02-10T21:02:47.000Z,40.50
2019-02-10T21:05:36.113Z,47.33
2019-02-10T21:08:30.188Z,40.13
2019-02-10T21:11:28.926Z,38.17
2019-02-10T21:14:21.792Z,39.20
2019-02-10T21:17:11.283Z,37.90
2019-02-10T21:20:01.271Z,39.83
2019-02-10T21:22:39.808Z,42.47
2019-02-10T21:25:25.026Z,45.00
2019-02-10T21:28:08.005Z,41.37
2019-02-10T21:30:53.806Z,40.70
2019-02-10T21:33:49.540Z,40.63
2019-02-10T21:36:28.554Z,42.37
2019-02-10T21:39:14.633Z,44.40
2019-02-10T21:41:52.416Z,43.60
2019-02-10T21:44:26.524Z,42.83
2019-02-10T21:47:16.591Z,44.80
2019-02-10T21:49:44.141Z,47.73
2019-02-10T21:52:11.588Z,49.43
2019-02-10T21:54:39.128Z,50.40
2019-02-10T21:57:07.073Z,49.90
2019-02-10T21:59:34.613Z,52.37
2019-02-10T22:02:02.054Z,54.07
2019-02-10T22:04:29.500Z,43.80
2019-02-10T22:06:56.914Z,60.37
2019-02-10T22:09:24.439Z,55.47
2019-02-10T22:11:51.880Z,52.60
2019-02-10T22:14:19.294Z,52.97
2019-02-10T22:16:46.775Z,53.43
2019-02-10T22:19:14.228Z,52.23
2019-02-10T22:21:41.613Z,59.00
2019-02-10T22:24:09.071Z,52.37
2019-02-10T22:26:36.496Z,56.07
2019-02-10T22:29:03.895Z,47.97
2019-02-10T22:31:31.300Z,45.53
2019-02-10T22:33:58.725Z,48.73
2019-02-10T22:36:26.165Z,47.93
2019-02-10T22:38:53.589Z,47.10
2019-02-10T22:41:20.994Z,56.97
2019-02-10T22:43:48.422Z,55.17
2019-02-10T22:46:15.857Z,65.30
2019-02-10T22:48:43.423Z,100.23
2019-02-10T22:51:10.937Z,56.23
2019-02-10T22:53:38.320Z,53.60
2019-02-10T22:56:05.736Z,50.80
2019-02-10T22:58:33.163Z,58.17
2019-02-10T23:01:04.456Z,55.23
2019-02-10T23:03:31.930Z,72.53
2019-02-10T23:05:59.461Z,53.40
2019-02-10T23:08:26.821Z,56.23
2019-02-10T23:10:54.322Z,57.40
2019-02-10T23:13:21.753Z,64.40
2019-02-10T23:15:49.108Z,54.80
2019-02-10T23:18:16.507Z,66.63
2019-02-10T23:20:43.907Z,61.33
2019-02-10T23:23:11.298Z,59.87
2019-02-10T23:25:38.718Z,57.37
2019-02-10T23:28:06.158Z,56.97
2019-02-10T23:30:33.497Z,70.43
2019-02-10T23:33:00.915Z,65.13
2019-02-10T23:35:28.428Z,72.17
2019-02-10T23:37:55.833Z,79.00
2019-02-10T23:40:23.241Z,82.27
2019-02-10T23:42:50.576Z,62.80
2019-02-10T23:45:18.091Z,68.73
2019-02-10T23:47:45.507Z,70.13
2019-02-10T23:50:12.982Z,64.07
2019-02-10T23:52:40.441Z,61.17
2019-02-10T23:55:07.965Z,71.00
2019-02-10T23:57:35.409Z,69.37
